createdAt,value
2023-04-12T00:02:29.386Z,52.2
2023-04-12T00:08:21.766Z,52.2
2023-04-12T00:14:13.721Z,52.1
2023-04-12T00:19:50.342Z,52.1
2023-04-12T00:25:41.322Z,52.1
2023-04-12T00:31:32.774Z,52
2023-04-12T00:37:24.599Z,52
2023-04-12T00:43:00.539Z,52
2023-04-12T00:59:48.334Z,51.9
2023-04-12T01:05:26.034Z,51.9
2023-04-12T01:11:18.212Z,52.5
2023-04-12T01:17:09.127Z,53.6
2023-04-12T01:22:45.107Z,54.6
2023-04-12T01:28:20.900Z,55.8
2023-04-12T01:33:41.285Z,56.9
2023-04-12T01:39:17.761Z,57.9
2023-04-12T01:44:53.691Z,59.1
2023-04-12T01:50:29.611Z,60.2
2023-04-12T01:56:06.104Z,61.2
2023-04-12T02:01:44.219Z,61.9
2023-04-12T02:07:22.265Z,62.1
2023-04-12T02:12:58.463Z,62.1
2023-04-12T02:18:35.327Z,62.3
2023-04-12T02:24:10.054Z,62.4
2023-04-12T02:29:45.564Z,62.4
2023-04-12T02:34:50.997Z,62.5
2023-04-12T02:40:26.750Z,62.4
2023-04-12T02:45:47.827Z,62.4
2023-04-12T02:51:10.118Z,62.4
2023-04-12T02:56:46.604Z,62.4
2023-04-12T03:02:23.189Z,62.3
2023-04-12T03:08:00.784Z,62.3
2023-04-12T03:13:36.598Z,62.3
2023-04-12T03:19:13.146Z,62.2
2023-04-12T03:24:49.609Z,62.2
2023-04-12T03:30:24.988Z,62.1
2023-04-12T03:36:01.342Z,62.1
2023-04-12T03:41:37.756Z,62.1
2023-04-12T03:47:16.585Z,62
2023-04-12T03:53:05.248Z,62
2023-04-12T03:58:42.346Z,61.9
2023-04-12T04:04:20.435Z,61.9
2023-04-12T04:09:57.778Z,61.9
2023-04-12T04:15:34.350Z,61.8
2023-04-12T04:21:09.968Z,61.8
2023-04-12T04:26:30.791Z,61.8
2023-04-12T04:32:07.342Z,61.7
2023-04-12T04:37:42.975Z,61.6
2023-04-12T04:43:19.169Z,61.6
2023-04-12T04:48:55.271Z,61.6
2023-04-12T04:54:31.173Z,61.5
2023-04-12T05:00:10.580Z,61.5
2023-04-12T05:05:49.851Z,61.4
2023-04-12T05:11:41.520Z,61.4
2023-04-12T05:17:39.375Z,61.4
2023-04-12T05:23:15.978Z,61.3
2023-04-12T05:28:51.621Z,61.3
2023-04-12T05:34:27.279Z,61.3
2023-04-12T05:40:02.843Z,61.2
2023-04-12T05:45:39.168Z,61.1
2023-04-12T05:51:15.759Z,61.1
2023-04-12T05:57:01.179Z,61.1
2023-04-12T06:02:38.571Z,61
2023-04-12T06:08:30.813Z,60.9
2023-04-12T06:14:06.524Z,60.9
2023-04-12T06:19:42.516Z,60.9
2023-04-12T06:25:18.855Z,60.8
2023-04-12T06:30:54.556Z,60.8
2023-04-12T06:36:31.216Z,60.8
2023-04-12T06:42:07.552Z,60.7
2023-04-12T06:47:43.812Z,60.6
2023-04-12T06:53:20.960Z,60.6
2023-04-12T06:58:26.506Z,60.6
2023-04-12T07:04:05.652Z,60.5
2023-04-12T07:09:35.933Z,60.4
2023-04-12T07:15:06.925Z,60.4
2023-04-12T07:20:44.316Z,60.4
2023-04-12T07:26:04.547Z,60.3
2023-04-12T07:31:41.009Z,60.3
2023-04-12T07:37:34.188Z,60.3
2023-04-12T07:43:12.228Z,60.2
2023-04-12T07:48:36.745Z,60.1
2023-04-12T07:54:13.459Z,60.1
2023-04-12T07:59:51.190Z,60.1
2023-04-12T08:05:32.394Z,60.1
2023-04-12T08:11:09.077Z,60
2023-04-12T08:16:45.673Z,59.9
2023-04-12T08:22:22.085Z,59.9
2023-04-12T08:27:58.981Z,59.8
2023-04-12T08:33:35.548Z,59.8
2023-04-12T08:39:42.949Z,59.8
2023-04-12T08:45:36.234Z,59.9
2023-04-12T08:51:27.519Z,60.2
2023-04-12T08:57:19.846Z,60.6
2023-04-12T09:03:12.975Z,61
2023-04-12T09:08:52.122Z,61.5
2023-04-12T09:14:31.587Z,61.9
2023-04-12T09:20:08.887Z,62.3
2023-04-12T09:25:59.865Z,62.8
2023-04-12T09:31:51.494Z,63.3
2023-04-12T09:37:29.193Z,63.8
2023-04-12T09:43:38.445Z,64.3
2023-04-12T09:49:31.226Z,64.8
2023-04-12T09:55:23.852Z,65.3
2023-04-12T10:01:17.755Z,65.8
2023-04-12T10:07:15.067Z,66.3
2023-04-12T10:12:52.451Z,66.7
2023-04-12T10:18:47.224Z,67.1
2023-04-12T10:24:42.382Z,67.6
2023-04-12T10:30:34.723Z,68.1
2023-04-12T10:36:27.636Z,68.5
2023-04-12T10:42:19.534Z,68.8
2023-04-12T10:48:11.506Z,69.3
2023-04-12T10:54:03.265Z,69.6
2023-04-12T11:00:04.389Z,69.9
2023-04-12T11:05:44.688Z,70.2
2023-04-12T11:11:47.931Z,70.6
2023-04-12T11:17:41.135Z,70.9
2023-04-12T11:23:33.786Z,71.1
2023-04-12T11:29:22.260Z,71.4
2023-04-12T11:35:15.036Z,71.6
2023-04-12T11:41:08.580Z,71.8
2023-04-12T11:47:14.549Z,71.9
2023-04-12T11:53:19.736Z,72.1
2023-04-12T11:58:56.501Z,72.2
2023-04-12T12:05:08.446Z,72.3
2023-04-12T12:11:24.943Z,72.4
2023-04-12T12:17:17.549Z,72.5
2023-04-12T12:23:09.116Z,72.5
2023-04-12T12:29:17.274Z,72.5
2023-04-12T12:35:27.039Z,72.4
2023-04-12T12:41:23.583Z,72.4
2023-04-12T12:47:39.595Z,72.4
2023-04-12T12:53:32.220Z,72.4
2023-04-12T12:59:42.376Z,72.3
2023-04-12T13:05:37.236Z,72.3
2023-04-12T13:11:30.203Z,72.2
2023-04-12T13:17:34.893Z,72.2
2023-04-12T13:23:28.866Z,72.1
2023-04-12T13:29:21.095Z,72.1
2023-04-12T13:35:00.945Z,72
2023-04-12T13:40:55.333Z,71.9
2023-04-12T13:46:47.370Z,71.9
2023-04-12T13:52:40.460Z,71.9
2023-04-12T13:58:32.698Z,71.8
2023-04-12T14:04:28.030Z,71.8
2023-04-12T14:10:20.012Z,71.7
2023-04-12T14:15:57.363Z,71.6
2023-04-12T14:21:50.155Z,71.6
2023-04-12T14:27:42.204Z,71.5
2023-04-12T14:33:36.485Z,71.4
2023-04-12T14:39:30.316Z,71.4
2023-04-12T14:45:22.995Z,71.4
2023-04-12T14:51:14.744Z,71.3
2023-04-12T14:57:14.662Z,71.3
2023-04-12T15:03:07.394Z,71.2
2023-04-12T15:09:01.085Z,71.1
2023-04-12T15:14:56.423Z,71.1
2023-04-12T15:20:57.430Z,71
2023-04-12T15:26:49.295Z,70.9
2023-04-12T15:32:42.432Z,70.9
2023-04-12T15:38:22.983Z,70.8
2023-04-12T15:44:15.055Z,70.8
2023-04-12T15:50:17.874Z,70.8
2023-04-12T15:56:08.974Z,70.6
2023-04-12T16:02:03.010Z,70.6
2023-04-12T16:07:57.755Z,70.6
2023-04-12T16:13:33.443Z,70.5
2023-04-12T16:19:25.413Z,70.4
2023-04-12T16:25:01.687Z,70.4
2023-04-12T16:30:53.860Z,70.3
2023-04-12T16:36:32.695Z,70.3
2023-04-12T16:42:24.846Z,70.2
2023-04-12T16:48:17.017Z,70.1
2023-04-12T16:54:11.515Z,70.1
2023-04-12T17:00:03.324Z,70
2023-04-12T17:05:56.012Z,69.9
2023-04-12T17:11:48.168Z,69.9
2023-04-12T17:17:40.489Z,69.8
2023-04-12T17:23:34.228Z,69.8
2023-04-12T17:29:27.156Z,69.7
2023-04-12T17:40:58.838Z,69.6
2023-04-12T17:46:51.637Z,69.5
2023-04-12T17:52:43.802Z,69.4
2023-04-12T17:58:35.063Z,69.4
2023-04-12T18:04:29.244Z,69.3
2023-04-12T18:10:21.744Z,69.3
2023-04-12T18:16:13.774Z,69.2
2023-04-12T18:22:06.125Z,69.1
2023-04-12T18:28:00.331Z,69.1
2023-04-12T18:33:53.021Z,69
2023-04-12T18:39:44.626Z,68.9
2023-04-12T18:45:36.900Z,68.8
2023-04-12T18:51:29.423Z,68.8
2023-04-12T18:57:07.835Z,68.7
2023-04-12T19:03:21.715Z,68.6
2023-04-12T19:09:16.059Z,68.6
2023-04-12T19:15:09.329Z,68.4
2023-04-12T19:21:02.095Z,68.4
2023-04-12T19:26:58.322Z,68.3
2023-04-12T19:32:52.156Z,68.3
2023-04-12T19:38:48.299Z,68.2
2023-04-12T19:44:43.592Z,68.1
2023-04-12T19:50:37.800Z,68.1
2023-04-12T19:56:31.055Z,68
2023-04-12T20:02:24.661Z,67.9
2023-04-12T20:08:18.214Z,67.8
2023-04-12T20:14:10.551Z,67.8
2023-04-12T20:19:49.142Z,67.7
2023-04-12T20:25:41.035Z,67.7
2023-04-12T20:31:33.401Z,67.6
2023-04-12T20:37:25.128Z,67.6
2023-04-12T20:43:17.386Z,67.4
2023-04-12T20:49:10.671Z,67.4
2023-04-12T20:55:03.484Z,67.4
2023-04-12T21:00:57.779Z,67.3
2023-04-12T21:08:28.816Z,67.2
2023-04-12T21:14:04.812Z,67.1
2023-04-12T21:19:56.432Z,67.1
2023-04-12T21:25:47.235Z,67
2023-04-12T21:31:39.004Z,66.9
2023-04-12T21:37:30.598Z,66.9
2023-04-12T21:43:21.958Z,66.8
2023-04-12T21:49:14.089Z,66.8
2023-04-12T21:55:09.008Z,66.7
2023-04-12T22:01:02.755Z,66.6
2023-04-12T22:06:53.006Z,66.6
2023-04-12T22:12:28.948Z,66.5
2023-04-12T22:18:20.817Z,66.4
2023-04-12T22:23:56.735Z,66.4
2023-04-12T22:29:33.671Z,66.3
2023-04-12T22:35:24.016Z,66.3
2023-04-12T22:41:16.027Z,66.2
2023-04-12T22:47:07.685Z,66.1
2023-04-12T22:52:59.075Z,66.1
2023-04-12T22:58:50.573Z,66
2023-04-12T23:04:46.437Z,65.9
2023-04-12T23:10:37.424Z,65.9
2023-04-12T23:16:13.222Z,65.8
2023-04-12T23:21:49.786Z,65.8
2023-04-12T23:27:41.395Z,65.7
2023-04-12T23:33:18.521Z,65.6
2023-04-12T23:39:09.705Z,65.6
2023-04-12T23:45:00.293Z,65.5
2023-04-12T23:50:52.125Z,65.4
2023-04-12T23:56:44.193Z,65.4
